SON weather

Santo Pekoa International Airport
Luganville, Sanma, Vanuatu

Public forecast

Using degrees Celsius for public forecast. Weather courtesy of forecast.io.

Current aviation weather report (METAR) for Santo Pekoa International Airport

Retrieved 2020/01/21 00:00 UTC (2 hours ago):

NVSS 210000Z 15006KT 9999 BKN018 29/24 Q1010

Aviation forecast (TAF) for Santo Pekoa International Airport

Retrieved 2020-01-21 00:23 UTC (1 hour ago):

TAF NVSS 202220Z 2100/2124 12006KT 9999 BKN020 INTER 2100/2106 9000 -SHRA BKN018